sensor_id;sensor_type;location;lat;lon;timestamp;P1;durP1;ratioP1;P2;durP2;ratioP2
1585;SDS011;786;48.718;9.514;2023-12-20T00:00:13;2.25;;;1.98;;
1585;SDS011;786;48.718;9.514;2023-12-20T00:02:41;4.03;;;2.83;;
1585;SDS011;786;48.718;9.514;2023-12-20T00:05:11;3.70;;;2.50;;
1585;SDS011;786;48.718;9.514;2023-12-20T00:07:38;5.25;;;2.70;;
1585;SDS011;786;48.718;9.514;2023-12-20T00:10:06;2.83;;;2.45;;
1585;SDS011;786;48.718;9.514;2023-12-20T00:12:33;3.42;;;2.70;;
1585;SDS011;786;48.718;9.514;2023-12-20T00:14:59;2.75;;;2.22;;
1585;SDS011;786;48.718;9.514;2023-12-20T00:17:26;3.13;;;2.58;;
1585;SDS011;786;48.718;9.514;2023-12-20T00:19:51;3.03;;;2.80;;
1585;SDS011;786;48.718;9.514;2023-12-20T00:22:18;3.05;;;2.63;;
1585;SDS011;786;48.718;9.514;2023-12-20T00:24:44;4.50;;;2.92;;
1585;SDS011;786;48.718;9.514;2023-12-20T00:27:12;3.40;;;2.80;;
1585;SDS011;786;48.718;9.514;2023-12-20T00:29:38;3.30;;;2.47;;
1585;SDS011;786;48.718;9.514;2023-12-20T00:32:05;3.42;;;2.42;;
1585;SDS011;786;48.718;9.514;2023-12-20T00:34:32;3.47;;;2.85;;
1585;SDS011;786;48.718;9.514;2023-12-20T00:36:58;3.05;;;2.60;;
1585;SDS011;786;48.718;9.514;2023-12-20T00:39:24;2.92;;;2.60;;
1585;SDS011;786;48.718;9.514;2023-12-20T00:41:51;2.75;;;2.40;;
1585;SDS011;786;48.718;9.514;2023-12-20T00:44:19;2.97;;;2.25;;
1585;SDS011;786;48.718;9.514;2023-12-20T00:46:45;2.97;;;2.13;;
1585;SDS011;786;48.718;9.514;2023-12-20T00:49:11;3.65;;;2.20;;
1585;SDS011;786;48.718;9.514;2023-12-20T00:51:38;2.80;;;1.92;;
1585;SDS011;786;48.718;9.514;2023-12-20T00:54:04;2.92;;;1.88;;
1585;SDS011;786;48.718;9.514;2023-12-20T00:56:30;2.70;;;2.33;;
1585;SDS011;786;48.718;9.514;2023-12-20T00:58:57;2.35;;;2.10;;
1585;SDS011;786;48.718;9.514;2023-12-20T01:01:25;2.28;;;1.88;;
1585;SDS011;786;48.718;9.514;2023-12-20T01:03:51;2.40;;;2.20;;
1585;SDS011;786;48.718;9.514;2023-12-20T01:06:18;3.33;;;1.98;;
1585;SDS011;786;48.718;9.514;2023-12-20T01:08:44;2.83;;;1.98;;
1585;SDS011;786;48.718;9.514;2023-12-20T01:11:11;2.42;;;2.05;;
1585;SDS011;786;48.718;9.514;2023-12-20T01:13:37;2.60;;;2.40;;
1585;SDS011;786;48.718;9.514;2023-12-20T01:16:04;1.83;;;1.70;;
1585;SDS011;786;48.718;9.514;2023-12-20T01:18:32;1.90;;;1.73;;
1585;SDS011;786;48.718;9.514;2023-12-20T01:21:01;2.17;;;1.90;;
1585;SDS011;786;48.718;9.514;2023-12-20T01:23:28;1.92;;;1.70;;
1585;SDS011;786;48.718;9.514;2023-12-20T01:25:54;2.45;;;1.85;;
1585;SDS011;786;48.718;9.514;2023-12-20T01:28:20;1.83;;;1.70;;
1585;SDS011;786;48.718;9.514;2023-12-20T01:30:47;1.88;;;1.75;;
1585;SDS011;786;48.718;9.514;2023-12-20T01:33:13;1.85;;;1.70;;
1585;SDS011;786;48.718;9.514;2023-12-20T01:35:41;1.70;;;1.60;;
1585;SDS011;786;48.718;9.514;2023-12-20T01:38:08;2.08;;;1.70;;
1585;SDS011;786;48.718;9.514;2023-12-20T01:40:35;2.13;;;1.85;;
1585;SDS011;786;48.718;9.514;2023-12-20T01:43:02;2.55;;;2.17;;
1585;SDS011;786;48.718;9.514;2023-12-20T01:45:31;2.00;;;1.70;;
1585;SDS011;786;48.718;9.514;2023-12-20T01:47:57;2.22;;;1.83;;
1585;SDS011;786;48.718;9.514;2023-12-20T01:50:24;2.65;;;1.20;;
1585;SDS011;786;48.718;9.514;2023-12-20T01:52:52;3.25;;;1.60;;
1585;SDS011;786;48.718;9.514;2023-12-20T01:55:20;1.48;;;1.38;;
1585;SDS011;786;48.718;9.514;2023-12-20T01:57:47;2.25;;;1.48;;
1585;SDS011;786;48.718;9.514;2023-12-20T02:00:14;1.60;;;1.50;;
1585;SDS011;786;48.718;9.514;2023-12-20T02:02:41;3.08;;;1.50;;
1585;SDS011;786;48.718;9.514;2023-12-20T02:05:07;1.45;;;1.30;;
1585;SDS011;786;48.718;9.514;2023-12-20T02:07:34;1.70;;;1.60;;
1585;SDS011;786;48.718;9.514;2023-12-20T02:10:02;2.38;;;1.50;;
1585;SDS011;786;48.718;9.514;2023-12-20T02:12:29;1.85;;;1.67;;
1585;SDS011;786;48.718;9.514;2023-12-20T02:14:55;2.50;;;2.00;;
1585;SDS011;786;48.718;9.514;2023-12-20T02:17:22;2.05;;;1.85;;
1585;SDS011;786;48.718;9.514;2023-12-20T02:19:49;2.00;;;1.77;;
1585;SDS011;786;48.718;9.514;2023-12-20T02:22:17;1.60;;;1.50;;
1585;SDS011;786;48.718;9.514;2023-12-20T02:24:42;1.80;;;1.60;;
1585;SDS011;786;48.718;9.514;2023-12-20T02:27:09;1.80;;;1.40;;
1585;SDS011;786;48.718;9.514;2023-12-20T02:29:35;1.55;;;1.42;;
1585;SDS011;786;48.718;9.514;2023-12-20T02:32:02;2.10;;;1.98;;
1585;SDS011;786;48.718;9.514;2023-12-20T02:34:29;1.58;;;1.48;;
1585;SDS011;786;48.718;9.514;2023-12-20T02:36:55;2.33;;;1.77;;
1585;SDS011;786;48.718;9.514;2023-12-20T02:39:23;1.60;;;1.35;;
1585;SDS011;786;48.718;9.514;2023-12-20T02:41:49;1.67;;;1.58;;
1585;SDS011;786;48.718;9.514;2023-12-20T02:44:16;2.58;;;1.50;;
1585;SDS011;786;48.718;9.514;2023-12-20T02:46:42;1.92;;;1.73;;
1585;SDS011;786;48.718;9.514;2023-12-20T02:49:09;1.60;;;1.33;;
1585;SDS011;786;48.718;9.514;2023-12-20T02:51:35;1.48;;;1.20;;
1585;SDS011;786;48.718;9.514;2023-12-20T02:54:03;1.48;;;1.38;;
1585;SDS011;786;48.718;9.514;2023-12-20T02:56:31;1.67;;;1.35;;
1585;SDS011;786;48.718;9.514;2023-12-20T02:58:57;1.73;;;1.60;;
1585;SDS011;786;48.718;9.514;2023-12-20T03:01:24;1.30;;;1.20;;
1585;SDS011;786;48.718;9.514;2023-12-20T03:03:50;1.52;;;1.40;;
1585;SDS011;786;48.718;9.514;2023-12-20T03:06:17;1.30;;;1.20;;
1585;SDS011;786;48.718;9.514;2023-12-20T03:08:44;1.42;;;1.30;;
1585;SDS011;786;48.718;9.514;2023-12-20T03:11:11;2.42;;;1.42;;
1585;SDS011;786;48.718;9.514;2023-12-20T03:13:39;1.40;;;1.30;;
1585;SDS011;786;48.718;9.514;2023-12-20T03:16:08;2.00;;;1.75;;
1585;SDS011;786;48.718;9.514;2023-12-20T03:18:35;1.77;;;1.67;;
1585;SDS011;786;48.718;9.514;2023-12-20T03:21:01;1.40;;;1.30;;
1585;SDS011;786;48.718;9.514;2023-12-20T03:23:29;2.03;;;1.30;;
1585;SDS011;786;48.718;9.514;2023-12-20T03:25:55;1.30;;;1.20;;
1585;SDS011;786;48.718;9.514;2023-12-20T03:28:22;1.42;;;1.33;;
1585;SDS011;786;48.718;9.514;2023-12-20T03:30:50;1.65;;;1.30;;
1585;SDS011;786;48.718;9.514;2023-12-20T03:33:16;1.55;;;1.20;;
1585;SDS011;786;48.718;9.514;2023-12-20T03:35:42;2.05;;;1.90;;
1585;SDS011;786;48.718;9.514;2023-12-20T03:38:09;1.65;;;1.55;;
1585;SDS011;786;48.718;9.514;2023-12-20T03:40:35;1.60;;;1.50;;
1585;SDS011;786;48.718;9.514;2023-12-20T03:43:02;1.40;;;1.30;;
1585;SDS011;786;48.718;9.514;2023-12-20T03:45:28;1.40;;;1.30;;
1585;SDS011;786;48.718;9.514;2023-12-20T03:47:56;1.45;;;1.35;;
1585;SDS011;786;48.718;9.514;2023-12-20T03:50:23;2.00;;;1.30;;
1585;SDS011;786;48.718;9.514;2023-12-20T03:52:49;1.63;;;1.27;;
1585;SDS011;786;48.718;9.514;2023-12-20T03:55:16;2.67;;;2.10;;
1585;SDS011;786;48.718;9.514;2023-12-20T03:57:42;3.60;;;2.17;;
1585;SDS011;786;48.718;9.514;2023-12-20T04:00:09;2.28;;;1.67;;
1585;SDS011;786;48.718;9.514;2023-12-20T04:02:36;2.42;;;1.55;;
1585;SDS011;786;48.718;9.514;2023-12-20T04:05:04;1.77;;;1.67;;
1585;SDS011;786;48.718;9.514;2023-12-20T04:07:31;1.60;;;1.42;;
1585;SDS011;786;48.718;9.514;2023-12-20T04:09:57;1.88;;;1.50;;
1585;SDS011;786;48.718;9.514;2023-12-20T04:12:24;1.88;;;1.38;;
1585;SDS011;786;48.718;9.514;2023-12-20T04:14:51;1.33;;;1.13;;
1585;SDS011;786;48.718;9.514;2023-12-20T04:17:20;1.52;;;1.42;;
1585;SDS011;786;48.718;9.514;2023-12-20T04:19:47;2.50;;;1.55;;
1585;SDS011;786;48.718;9.514;2023-12-20T04:22:15;1.63;;;1.52;;
1585;SDS011;786;48.718;9.514;2023-12-20T04:24:41;1.50;;;1.40;;
1585;SDS011;786;48.718;9.514;2023-12-20T04:27:08;1.58;;;1.48;;
1585;SDS011;786;48.718;9.514;2023-12-20T04:29:34;1.40;;;1.30;;
1585;SDS011;786;48.718;9.514;2023-12-20T04:32:01;1.33;;;1.27;;
1585;SDS011;786;48.718;9.514;2023-12-20T04:34:27;1.30;;;1.20;;
1585;SDS011;786;48.718;9.514;2023-12-20T04:36:53;1.27;;;1.17;;
1585;SDS011;786;48.718;9.514;2023-12-20T04:39:21;1.60;;;1.50;;
1585;SDS011;786;48.718;9.514;2023-12-20T04:41:48;1.30;;;1.20;;
1585;SDS011;786;48.718;9.514;2023-12-20T04:44:15;1.30;;;1.20;;
1585;SDS011;786;48.718;9.514;2023-12-20T04:46:41;1.85;;;1.70;;
1585;SDS011;786;48.718;9.514;2023-12-20T04:49:08;1.63;;;1.52;;
1585;SDS011;786;48.718;9.514;2023-12-20T04:51:34;1.33;;;1.33;;
1585;SDS011;786;48.718;9.514;2023-12-20T04:54:01;1.95;;;1.30;;
1585;SDS011;786;48.718;9.514;2023-12-20T04:56:29;1.60;;;1.50;;
1585;SDS011;786;48.718;9.514;2023-12-20T04:58:55;1.27;;;1.25;;
1585;SDS011;786;48.718;9.514;2023-12-20T05:01:22;1.45;;;1.35;;
1585;SDS011;786;48.718;9.514;2023-12-20T05:03:48;1.30;;;1.20;;
1585;SDS011;786;48.718;9.514;2023-12-20T05:06:14;1.20;;;1.13;;
1585;SDS011;786;48.718;9.514;2023-12-20T05:08:41;1.30;;;1.20;;
1585;SDS011;786;48.718;9.514;2023-12-20T05:11:07;2.15;;;1.67;;
1585;SDS011;786;48.718;9.514;2023-12-20T05:13:35;1.30;;;1.20;;
1585;SDS011;786;48.718;9.514;2023-12-20T05:16:02;1.52;;;1.42;;
1585;SDS011;786;48.718;9.514;2023-12-20T05:18:29;0.98;;;0.98;;
1585;SDS011;786;48.718;9.514;2023-12-20T05:20:55;1.25;;;0.88;;
1585;SDS011;786;48.718;9.514;2023-12-20T05:23:21;1.10;;;1.10;;
1585;SDS011;786;48.718;9.514;2023-12-20T05:25:48;0.90;;;0.90;;
1585;SDS011;786;48.718;9.514;2023-12-20T05:28:14;1.65;;;1.25;;
1585;SDS011;786;48.718;9.514;2023-12-20T05:30:42;1.77;;;1.67;;
1585;SDS011;786;48.718;9.514;2023-12-20T05:33:09;1.80;;;1.70;;
1585;SDS011;786;48.718;9.514;2023-12-20T05:35:35;1.15;;;1.13;;
1585;SDS011;786;48.718;9.514;2023-12-20T05:38:02;1.80;;;1.70;;
1585;SDS011;786;48.718;9.514;2023-12-20T05:40:28;0.80;;;0.80;;
1585;SDS011;786;48.718;9.514;2023-12-20T05:42:55;0.80;;;0.80;;
1585;SDS011;786;48.718;9.514;2023-12-20T05:45:21;1.10;;;1.10;;
1585;SDS011;786;48.718;9.514;2023-12-20T05:47:49;1.48;;;1.30;;
1585;SDS011;786;48.718;9.514;2023-12-20T05:50:15;1.73;;;1.40;;
1585;SDS011;786;48.718;9.514;2023-12-20T05:52:42;1.58;;;1.38;;
1585;SDS011;786;48.718;9.514;2023-12-20T05:55:08;1.33;;;1.30;;
1585;SDS011;786;48.718;9.514;2023-12-20T05:57:34;1.08;;;1.08;;
1585;SDS011;786;48.718;9.514;2023-12-20T06:00:01;1.33;;;1.33;;
1585;SDS011;786;48.718;9.514;2023-12-20T06:02:29;0.90;;;0.90;;
1585;SDS011;786;48.718;9.514;2023-12-20T06:04:56;1.50;;;0.93;;
1585;SDS011;786;48.718;9.514;2023-12-20T06:07:23;1.75;;;1.10;;
1585;SDS011;786;48.718;9.514;2023-12-20T06:09:49;1.38;;;1.27;;
1585;SDS011;786;48.718;9.514;2023-12-20T06:12:16;1.08;;;1.08;;
1585;SDS011;786;48.718;9.514;2023-12-20T06:14:42;0.80;;;0.80;;
1585;SDS011;786;48.718;9.514;2023-12-20T06:17:09;1.17;;;1.08;;
1585;SDS011;786;48.718;9.514;2023-12-20T06:19:35;1.38;;;0.90;;
1585;SDS011;786;48.718;9.514;2023-12-20T06:22:03;1.05;;;1.00;;
1585;SDS011;786;48.718;9.514;2023-12-20T06:24:29;1.13;;;1.02;;
1585;SDS011;786;48.718;9.514;2023-12-20T06:26:58;1.52;;;1.42;;
1585;SDS011;786;48.718;9.514;2023-12-20T06:29:25;1.40;;;1.20;;
1585;SDS011;786;48.718;9.514;2023-12-20T06:31:51;2.25;;;1.20;;
1585;SDS011;786;48.718;9.514;2023-12-20T06:34:18;1.80;;;1.50;;
1585;SDS011;786;48.718;9.514;2023-12-20T06:36:44;2.33;;;1.90;;
1585;SDS011;786;48.718;9.514;2023-12-20T06:39:12;2.50;;;2.30;;
1585;SDS011;786;48.718;9.514;2023-12-20T06:41:39;2.00;;;1.80;;
1585;SDS011;786;48.718;9.514;2023-12-20T06:44:05;2.28;;;2.08;;
1585;SDS011;786;48.718;9.514;2023-12-20T06:46:31;2.10;;;1.90;;
1585;SDS011;786;48.718;9.514;2023-12-20T06:48:58;1.35;;;1.25;;
1585;SDS011;786;48.718;9.514;2023-12-20T06:51:24;1.35;;;1.25;;
1585;SDS011;786;48.718;9.514;2023-12-20T06:53:51;1.35;;;1.13;;
1585;SDS011;786;48.718;9.514;2023-12-20T06:56:19;1.60;;;1.30;;
1585;SDS011;786;48.718;9.514;2023-12-20T06:58:45;1.85;;;1.60;;
1585;SDS011;786;48.718;9.514;2023-12-20T07:01:12;1.85;;;1.70;;
1585;SDS011;786;48.718;9.514;2023-12-20T07:03:39;2.50;;;2.00;;
1585;SDS011;786;48.718;9.514;2023-12-20T07:06:05;2.00;;;1.80;;
1585;SDS011;786;48.718;9.514;2023-12-20T07:08:32;2.08;;;1.48;;
1585;SDS011;786;48.718;9.514;2023-12-20T07:10:58;2.72;;;1.73;;
1585;SDS011;786;48.718;9.514;2023-12-20T07:13:26;2.47;;;2.28;;
1585;SDS011;786;48.718;9.514;2023-12-20T07:15:52;2.17;;;1.48;;
1585;SDS011;786;48.718;9.514;2023-12-20T07:18:19;2.50;;;2.00;;
1585;SDS011;786;48.718;9.514;2023-12-20T07:20:45;1.58;;;1.48;;
1585;SDS011;786;48.718;9.514;2023-12-20T07:23:12;1.70;;;1.60;;
1585;SDS011;786;48.718;9.514;2023-12-20T07:25:38;1.55;;;1.45;;
1585;SDS011;786;48.718;9.514;2023-12-20T07:28:05;1.83;;;1.60;;
1585;SDS011;786;48.718;9.514;2023-12-20T07:30:32;2.80;;;1.48;;
1585;SDS011;786;48.718;9.514;2023-12-20T07:32:59;2.53;;;2.08;;
1585;SDS011;786;48.718;9.514;2023-12-20T07:35:26;1.77;;;1.30;;
1585;SDS011;786;48.718;9.514;2023-12-20T07:37:52;1.90;;;1.70;;
1585;SDS011;786;48.718;9.514;2023-12-20T07:40:18;2.60;;;1.90;;
1585;SDS011;786;48.718;9.514;2023-12-20T07:42:45;2.22;;;1.73;;
1585;SDS011;786;48.718;9.514;2023-12-20T07:45:11;2.22;;;1.85;;
1585;SDS011;786;48.718;9.514;2023-12-20T07:47:39;7.22;;;3.03;;
1585;SDS011;786;48.718;9.514;2023-12-20T07:50:06;3.53;;;2.60;;
1585;SDS011;786;48.718;9.514;2023-12-20T07:52:32;2.30;;;1.98;;
1585;SDS011;786;48.718;9.514;2023-12-20T07:54:59;4.38;;;2.33;;
1585;SDS011;786;48.718;9.514;2023-12-20T07:57:28;2.55;;;1.70;;
1585;SDS011;786;48.718;9.514;2023-12-20T07:59:54;1.88;;;1.77;;
1585;SDS011;786;48.718;9.514;2023-12-20T08:02:21;3.25;;;1.83;;
1585;SDS011;786;48.718;9.514;2023-12-20T08:04:49;3.65;;;1.88;;
1585;SDS011;786;48.718;9.514;2023-12-20T08:07:15;2.08;;;1.98;;
1585;SDS011;786;48.718;9.514;2023-12-20T08:09:41;3.78;;;2.05;;
1585;SDS011;786;48.718;9.514;2023-12-20T08:12:08;2.40;;;1.95;;
1585;SDS011;786;48.718;9.514;2023-12-20T08:14:36;1.90;;;1.70;;
1585;SDS011;786;48.718;9.514;2023-12-20T08:17:02;2.33;;;1.60;;
1585;SDS011;786;48.718;9.514;2023-12-20T08:19:29;2.05;;;1.60;;
1585;SDS011;786;48.718;9.514;2023-12-20T08:21:57;1.92;;;1.50;;
1585;SDS011;786;48.718;9.514;2023-12-20T08:24:23;2.30;;;1.90;;
1585;SDS011;786;48.718;9.514;2023-12-20T08:26:49;3.97;;;2.15;;
1585;SDS011;786;48.718;9.514;2023-12-20T08:29:16;3.28;;;2.25;;
1585;SDS011;786;48.718;9.514;2023-12-20T08:31:42;2.05;;;1.92;;
1585;SDS011;786;48.718;9.514;2023-12-20T08:34:09;1.92;;;1.83;;
1585;SDS011;786;48.718;9.514;2023-12-20T08:36:36;2.10;;;1.85;;
1585;SDS011;786;48.718;9.514;2023-12-20T08:39:04;2.15;;;2.00;;
1585;SDS011;786;48.718;9.514;2023-12-20T08:41:32;2.28;;;2.08;;
1585;SDS011;786;48.718;9.514;2023-12-20T08:43:59;3.28;;;1.95;;
1585;SDS011;786;48.718;9.514;2023-12-20T08:46:25;2.67;;;1.98;;
1585;SDS011;786;48.718;9.514;2023-12-20T08:48:51;2.45;;;2.00;;
1585;SDS011;786;48.718;9.514;2023-12-20T08:51:18;3.13;;;2.83;;
1585;SDS011;786;48.718;9.514;2023-12-20T08:53:44;4.90;;;3.97;;
1585;SDS011;786;48.718;9.514;2023-12-20T08:56:14;2.65;;;2.45;;
1585;SDS011;786;48.718;9.514;2023-12-20T08:58:40;3.55;;;2.25;;
1585;SDS011;786;48.718;9.514;2023-12-20T09:01:07;4.60;;;3.55;;
1585;SDS011;786;48.718;9.514;2023-12-20T09:03:34;3.72;;;3.20;;
1585;SDS011;786;48.718;9.514;2023-12-20T09:06:00;4.13;;;2.60;;
1585;SDS011;786;48.718;9.514;2023-12-20T09:08:27;4.75;;;3.55;;
1585;SDS011;786;48.718;9.514;2023-12-20T09:10:53;6.13;;;3.65;;
1585;SDS011;786;48.718;9.514;2023-12-20T09:13:21;3.75;;;3.15;;
1585;SDS011;786;48.718;9.514;2023-12-20T09:15:52;4.18;;;2.90;;
1585;SDS011;786;48.718;9.514;2023-12-20T09:18:19;3.72;;;2.85;;
1585;SDS011;786;48.718;9.514;2023-12-20T09:20:45;3.38;;;2.28;;
1585;SDS011;786;48.718;9.514;2023-12-20T09:23:12;4.40;;;3.15;;
1585;SDS011;786;48.718;9.514;2023-12-20T09:25:38;3.75;;;2.60;;
1585;SDS011;786;48.718;9.514;2023-12-20T09:28:05;5.40;;;2.25;;
1585;SDS011;786;48.718;9.514;2023-12-20T09:30:33;2.70;;;2.10;;
1585;SDS011;786;48.718;9.514;2023-12-20T09:33:00;2.75;;;2.08;;
1585;SDS011;786;48.718;9.514;2023-12-20T09:35:27;3.38;;;2.58;;
1585;SDS011;786;48.718;9.514;2023-12-20T09:37:53;2.50;;;2.13;;
1585;SDS011;786;48.718;9.514;2023-12-20T09:40:19;3.65;;;2.85;;
1585;SDS011;786;48.718;9.514;2023-12-20T09:42:47;4.95;;;2.40;;
1585;SDS011;786;48.718;9.514;2023-12-20T09:45:15;8.52;;;3.55;;
1585;SDS011;786;48.718;9.514;2023-12-20T09:47:43;7.25;;;3.22;;
1585;SDS011;786;48.718;9.514;2023-12-20T09:50:10;6.30;;;3.80;;
1585;SDS011;786;48.718;9.514;2023-12-20T09:52:37;3.35;;;2.90;;
1585;SDS011;786;48.718;9.514;2023-12-20T09:55:05;3.90;;;3.05;;
1585;SDS011;786;48.718;9.514;2023-12-20T09:57:33;3.90;;;3.10;;
1585;SDS011;786;48.718;9.514;2023-12-20T09:59:59;4.18;;;2.40;;
1585;SDS011;786;48.718;9.514;2023-12-20T10:02:26;4.38;;;3.53;;
1585;SDS011;786;48.718;9.514;2023-12-20T10:04:54;3.58;;;2.80;;
1585;SDS011;786;48.718;9.514;2023-12-20T10:07:20;3.97;;;3.45;;
1585;SDS011;786;48.718;9.514;2023-12-20T10:09:47;3.42;;;3.10;;
1585;SDS011;786;48.718;9.514;2023-12-20T10:12:14;5.65;;;3.38;;
1585;SDS011;786;48.718;9.514;2023-12-20T10:14:41;4.57;;;3.00;;
1585;SDS011;786;48.718;9.514;2023-12-20T10:17:07;3.45;;;3.13;;
1585;SDS011;786;48.718;9.514;2023-12-20T10:19:35;3.65;;;2.33;;
1585;SDS011;786;48.718;9.514;2023-12-20T10:22:05;4.07;;;2.20;;
1585;SDS011;786;48.718;9.514;2023-12-20T10:24:31;2.92;;;2.33;;
1585;SDS011;786;48.718;9.514;2023-12-20T10:27:01;3.40;;;2.83;;
1585;SDS011;786;48.718;9.514;2023-12-20T10:29:31;2.50;;;2.30;;
1585;SDS011;786;48.718;9.514;2023-12-20T10:31:58;3.38;;;2.20;;
1585;SDS011;786;48.718;9.514;2023-12-20T10:34:24;2.08;;;1.80;;
1585;SDS011;786;48.718;9.514;2023-12-20T10:36:51;4.43;;;2.15;;
1585;SDS011;786;48.718;9.514;2023-12-20T10:39:19;3.75;;;2.67;;
1585;SDS011;786;48.718;9.514;2023-12-20T10:41:46;13.50;;;7.80;;
1585;SDS011;786;48.718;9.514;2023-12-20T10:44:13;12.90;;;7.50;;
1585;SDS011;786;48.718;9.514;2023-12-20T10:46:41;5.53;;;3.90;;
1585;SDS011;786;48.718;9.514;2023-12-20T10:49:12;3.20;;;2.30;;
1585;SDS011;786;48.718;9.514;2023-12-20T10:51:39;50.15;;;29.15;;
1585;SDS011;786;48.718;9.514;2023-12-20T10:54:06;12.05;;;6.90;;
1585;SDS011;786;48.718;9.514;2023-12-20T10:56:35;42.42;;;20.55;;
1585;SDS011;786;48.718;9.514;2023-12-20T10:59:03;42.85;;;21.33;;
1585;SDS011;786;48.718;9.514;2023-12-20T11:01:30;29.27;;;15.02;;
1585;SDS011;786;48.718;9.514;2023-12-20T11:03:57;79.70;;;41.67;;
1585;SDS011;786;48.718;9.514;2023-12-20T11:06:27;35.50;;;23.27;;
1585;SDS011;786;48.718;9.514;2023-12-20T11:11:37;364.05;;;146.93;;
1585;SDS011;786;48.718;9.514;2023-12-20T11:14:12;327.70;;;137.32;;
1585;SDS011;786;48.718;9.514;2023-12-20T11:16:42;53.85;;;25.48;;
1585;SDS011;786;48.718;9.514;2023-12-20T11:19:08;241.25;;;100.47;;
1585;SDS011;786;48.718;9.514;2023-12-20T11:21:38;172.45;;;88.50;;
1585;SDS011;786;48.718;9.514;2023-12-20T11:24:05;14.45;;;9.00;;
1585;SDS011;786;48.718;9.514;2023-12-20T11:26:32;4.07;;;3.70;;
1585;SDS011;786;48.718;9.514;2023-12-20T11:32:00;5.10;;;1.70;;
1585;SDS011;786;48.718;9.514;2023-12-20T11:34:27;3.63;;;2.00;;
1585;SDS011;786;48.718;9.514;2023-12-20T11:36:59;2.22;;;1.65;;
1585;SDS011;786;48.718;9.514;2023-12-20T11:39:26;2.15;;;1.50;;
1585;SDS011;786;48.718;9.514;2023-12-20T11:41:54;3.53;;;1.60;;
1585;SDS011;786;48.718;9.514;2023-12-20T11:44:22;3.47;;;2.40;;
1585;SDS011;786;48.718;9.514;2023-12-20T11:46:49;6.43;;;2.10;;
1585;SDS011;786;48.718;9.514;2023-12-20T11:49:16;3.50;;;1.92;;
1585;SDS011;786;48.718;9.514;2023-12-20T11:51:42;2.45;;;1.80;;
1585;SDS011;786;48.718;9.514;2023-12-20T11:54:10;2.58;;;1.80;;
1585;SDS011;786;48.718;9.514;2023-12-20T11:56:36;3.10;;;2.00;;
1585;SDS011;786;48.718;9.514;2023-12-20T11:59:03;2.30;;;1.85;;
1585;SDS011;786;48.718;9.514;2023-12-20T12:01:31;2.95;;;1.88;;
1585;SDS011;786;48.718;9.514;2023-12-20T12:04:05;4.97;;;1.63;;
1585;SDS011;786;48.718;9.514;2023-12-20T12:06:31;3.05;;;1.52;;
1585;SDS011;786;48.718;9.514;2023-12-20T12:08:58;2.67;;;1.52;;
1585;SDS011;786;48.718;9.514;2023-12-20T12:11:25;1.80;;;1.70;;
1585;SDS011;786;48.718;9.514;2023-12-20T12:13:51;2.08;;;1.60;;
1585;SDS011;786;48.718;9.514;2023-12-20T12:16:18;3.60;;;2.00;;
1585;SDS011;786;48.718;9.514;2023-12-20T12:18:44;1.67;;;1.58;;
1585;SDS011;786;48.718;9.514;2023-12-20T12:21:19;2.83;;;1.85;;
1585;SDS011;786;48.718;9.514;2023-12-20T12:23:46;4.20;;;1.83;;
1585;SDS011;786;48.718;9.514;2023-12-20T12:26:12;3.80;;;2.08;;
1585;SDS011;786;48.718;9.514;2023-12-20T12:28:39;26.80;;;16.08;;
1585;SDS011;786;48.718;9.514;2023-12-20T12:31:06;35.25;;;23.45;;
1585;SDS011;786;48.718;9.514;2023-12-20T12:33:32;5.07;;;3.80;;
1585;SDS011;786;48.718;9.514;2023-12-20T12:35:59;3.53;;;1.85;;
1585;SDS011;786;48.718;9.514;2023-12-20T12:38:27;4.03;;;1.92;;
1585;SDS011;786;48.718;9.514;2023-12-20T12:40:54;1.90;;;1.55;;
1585;SDS011;786;48.718;9.514;2023-12-20T12:43:20;2.13;;;1.92;;
1585;SDS011;786;48.718;9.514;2023-12-20T12:45:48;4.63;;;2.58;;
1585;SDS011;786;48.718;9.514;2023-12-20T12:48:14;3.20;;;2.20;;
1585;SDS011;786;48.718;9.514;2023-12-20T12:50:40;1.73;;;1.63;;
1585;SDS011;786;48.718;9.514;2023-12-20T12:53:07;3.95;;;1.70;;
1585;SDS011;786;48.718;9.514;2023-12-20T12:55:35;4.78;;;2.97;;
1585;SDS011;786;48.718;9.514;2023-12-20T12:58:01;6.03;;;3.00;;
1585;SDS011;786;48.718;9.514;2023-12-20T13:00:28;3.28;;;2.83;;
1585;SDS011;786;48.718;9.514;2023-12-20T13:02:54;5.28;;;2.35;;
1585;SDS011;786;48.718;9.514;2023-12-20T13:05:20;4.18;;;2.42;;
1585;SDS011;786;48.718;9.514;2023-12-20T13:07:47;6.13;;;3.40;;
1585;SDS011;786;48.718;9.514;2023-12-20T13:10:13;6.18;;;2.78;;
1585;SDS011;786;48.718;9.514;2023-12-20T13:12:42;6.28;;;3.30;;
1585;SDS011;786;48.718;9.514;2023-12-20T13:15:09;6.80;;;2.83;;
1585;SDS011;786;48.718;9.514;2023-12-20T13:17:36;5.25;;;2.45;;
1585;SDS011;786;48.718;9.514;2023-12-20T13:20:02;5.07;;;2.30;;
1585;SDS011;786;48.718;9.514;2023-12-20T13:22:29;4.80;;;2.92;;
1585;SDS011;786;48.718;9.514;2023-12-20T13:24:56;4.18;;;2.13;;
1585;SDS011;786;48.718;9.514;2023-12-20T13:27:22;4.80;;;2.88;;
1585;SDS011;786;48.718;9.514;2023-12-20T13:29:50;11.65;;;5.60;;
1585;SDS011;786;48.718;9.514;2023-12-20T13:32:16;24.98;;;11.60;;
1585;SDS011;786;48.718;9.514;2023-12-20T13:34:44;22.38;;;11.18;;
1585;SDS011;786;48.718;9.514;2023-12-20T13:37:11;15.60;;;8.27;;
1585;SDS011;786;48.718;9.514;2023-12-20T13:39:38;13.93;;;7.53;;
1585;SDS011;786;48.718;9.514;2023-12-20T13:42:06;13.75;;;6.20;;
1585;SDS011;786;48.718;9.514;2023-12-20T13:44:32;10.13;;;5.70;;
1585;SDS011;786;48.718;9.514;2023-12-20T13:47:00;15.85;;;5.97;;
1585;SDS011;786;48.718;9.514;2023-12-20T13:49:28;9.63;;;6.65;;
1585;SDS011;786;48.718;9.514;2023-12-20T13:51:54;7.90;;;4.95;;
1585;SDS011;786;48.718;9.514;2023-12-20T13:54:22;5.97;;;4.85;;
1585;SDS011;786;48.718;9.514;2023-12-20T13:56:49;5.25;;;3.13;;
1585;SDS011;786;48.718;9.514;2023-12-20T13:59:15;4.18;;;2.63;;
1585;SDS011;786;48.718;9.514;2023-12-20T14:01:41;3.67;;;3.33;;
1585;SDS011;786;48.718;9.514;2023-12-20T14:04:09;4.78;;;4.15;;
1585;SDS011;786;48.718;9.514;2023-12-20T14:06:36;5.50;;;3.25;;
1585;SDS011;786;48.718;9.514;2023-12-20T14:09:03;4.55;;;2.22;;
1585;SDS011;786;48.718;9.514;2023-12-20T14:11:29;3.55;;;3.08;;
1585;SDS011;786;48.718;9.514;2023-12-20T14:13:56;6.43;;;3.40;;
1585;SDS011;786;48.718;9.514;2023-12-20T14:16:23;6.50;;;2.67;;
1585;SDS011;786;48.718;9.514;2023-12-20T14:18:49;7.93;;;3.72;;
1585;SDS011;786;48.718;9.514;2023-12-20T14:21:19;7.47;;;2.95;;
1585;SDS011;786;48.718;9.514;2023-12-20T14:23:45;4.85;;;3.42;;
1585;SDS011;786;48.718;9.514;2023-12-20T14:26:12;6.75;;;3.63;;
1585;SDS011;786;48.718;9.514;2023-12-20T14:28:40;5.15;;;2.47;;
1585;SDS011;786;48.718;9.514;2023-12-20T14:31:06;5.32;;;3.78;;
1585;SDS011;786;48.718;9.514;2023-12-20T14:33:33;3.00;;;2.55;;
1585;SDS011;786;48.718;9.514;2023-12-20T14:36:00;3.75;;;2.40;;
1585;SDS011;786;48.718;9.514;2023-12-20T14:38:31;3.80;;;2.38;;
1585;SDS011;786;48.718;9.514;2023-12-20T14:40:57;4.95;;;2.30;;
1585;SDS011;786;48.718;9.514;2023-12-20T14:43:25;3.08;;;2.53;;
1585;SDS011;786;48.718;9.514;2023-12-20T14:45:52;3.53;;;2.90;;
1585;SDS011;786;48.718;9.514;2023-12-20T14:48:18;4.32;;;2.28;;
1585;SDS011;786;48.718;9.514;2023-12-20T14:50:46;3.35;;;1.92;;
1585;SDS011;786;48.718;9.514;2023-12-20T14:53:13;6.32;;;3.25;;
1585;SDS011;786;48.718;9.514;2023-12-20T14:55:42;4.05;;;2.03;;
1585;SDS011;786;48.718;9.514;2023-12-20T14:58:09;2.53;;;1.52;;
1585;SDS011;786;48.718;9.514;2023-12-20T15:00:35;2.55;;;1.55;;
1585;SDS011;786;48.718;9.514;2023-12-20T15:03:02;2.78;;;1.50;;
1585;SDS011;786;48.718;9.514;2023-12-20T15:05:31;4.15;;;2.55;;
1585;SDS011;786;48.718;9.514;2023-12-20T15:07:58;1.50;;;1.35;;
1585;SDS011;786;48.718;9.514;2023-12-20T15:10:24;6.72;;;6.05;;
1585;SDS011;786;48.718;9.514;2023-12-20T15:12:52;2.67;;;2.15;;
1585;SDS011;786;48.718;9.514;2023-12-20T15:15:20;4.75;;;2.40;;
1585;SDS011;786;48.718;9.514;2023-12-20T15:17:46;2.58;;;2.38;;
1585;SDS011;786;48.718;9.514;2023-12-20T15:20:13;2.83;;;2.13;;
1585;SDS011;786;48.718;9.514;2023-12-20T15:22:40;2.47;;;1.85;;
1585;SDS011;786;48.718;9.514;2023-12-20T15:25:09;2.95;;;1.65;;
1585;SDS011;786;48.718;9.514;2023-12-20T15:27:37;2.90;;;1.63;;
1585;SDS011;786;48.718;9.514;2023-12-20T15:30:06;1.83;;;1.40;;